Time;durP1;ratioP1;P1;durP2;ratioP2;P2;SDS_P1;SDS_P2;PMS_P1;PMS_P2;Temp;Humidity;BMP_temperature;BMP_pressure;BME280_temperature;BME280_humidity;BME280_pressure;Samples;Min_cycle;Max_cycle;Signal;HPM_P1;HPM_P2
2022/07/11 00:00:03;;;;;;;16.23;8.35;;;;;;;17.63;64.32;98690.78;1707792;84;21847;-44
2022/07/11 00:02:32;;;;;;;22.82;9.00;;;;;;;17.67;64.15;98690.11;1743454;82;21444;-44
2022/07/11 00:04:59;;;;;;;15.45;8.98;;;;;;;17.71;64.05;98683.97;1743148;82;21644;-44
2022/07/11 00:07:26;;;;;;;19.20;9.45;;;;;;;17.72;63.98;98689.61;1743702;81;21484;-44
2022/07/11 00:09:53;;;;;;;21.23;8.88;;;;;;;17.71;63.89;98690.83;1743627;82;21315;-44
2022/07/11 00:12:25;;;;;;;25.97;10.43;;;;;;;17.72;63.84;98690.20;1743671;81;21479;-44
2022/07/11 00:14:51;;;;;;;17.40;8.83;;;;;;;17.70;64.15;98683.80;1743414;81;20981;-45
2022/07/11 00:17:19;;;;;;;16.20;9.15;;;;;;;17.72;64.40;98685.50;1743544;82;20983;-45
2022/07/11 00:19:46;;;;;;;17.23;8.28;;;;;;;17.71;64.36;98683.97;1743434;82;21076;-45
2022/07/11 00:22:14;;;;;;;15.85;7.92;;;;;;;17.72;64.12;98678.64;1743373;81;20922;-45
2022/07/11 00:24:41;;;;;;;16.52;8.05;;;;;;;17.73;64.05;98680.20;1743489;82;20965;-44
2022/07/11 00:27:09;;;;;;;16.52;8.10;;;;;;;17.75;63.95;98669.59;1743509;82;20927;-45
2022/07/11 00:29:37;;;;;;;15.53;8.53;;;;;;;17.72;63.95;98673.16;1743492;82;21045;-45
2022/07/11 00:32:06;;;;;;;14.35;7.92;;;;;;;17.63;64.06;98676.30;1743564;82;21002;-44
2022/07/11 00:34:33;;;;;;;18.83;8.17;;;;;;;17.58;64.19;98678.12;1743834;82;21496;-44
2022/07/11 00:37:00;;;;;;;16.67;7.87;;;;;;;17.53;64.30;98680.77;1743500;82;20992;-45
2022/07/11 00:39:28;;;;;;;12.85;7.20;;;;;;;17.50;64.50;98673.41;1743550;82;21049;-45
2022/07/11 00:41:55;;;;;;;11.73;6.35;;;;;;;17.50;64.46;98663.81;1743365;82;21564;-44
2022/07/11 00:44:22;;;;;;;14.78;7.45;;;;;;;17.54;64.44;98660.98;1743811;81;21032;-45
2022/07/11 00:46:49;;;;;;;13.05;7.03;;;;;;;17.56;64.49;98664.88;1743356;81;21242;-45
2022/07/11 00:49:16;;;;;;;15.98;7.10;;;;;;;17.56;64.40;98660.76;1743497;81;20997;-45
2022/07/11 00:51:43;;;;;;;14.47;7.33;;;;;;;17.56;64.24;98664.09;1707673;83;21016;-44
2022/07/11 00:54:10;;;;;;;11.30;7.22;;;;;;;17.51;64.25;98661.84;1743641;82;20981;-45
2022/07/11 00:56:37;;;;;;;11.08;6.75;;;;;;;17.46;64.28;98659.00;1707878;84;21789;-44
2022/07/11 00:59:04;;;;;;;12.63;6.92;;;;;;;17.37;64.41;98650.58;1707885;84;21149;-44
2022/07/11 01:01:33;;;;;;;13.70;6.62;;;;;;;17.32;64.59;98659.28;1743299;81;21559;-44
2022/07/11 01:04:01;;;;;;;10.45;6.47;;;;;;;17.33;64.65;98655.36;1743751;81;20926;-45
2022/07/11 01:06:28;;;;;;;12.68;6.30;;;;;;;17.37;64.65;98654.69;1686305;84;21076;-44
2022/07/11 01:08:55;;;;;;;11.00;6.05;;;;;;;17.36;64.37;98649.03;1707760;84;21087;-45
2022/07/11 01:11:23;;;;;;;10.40;5.62;;;;;;;17.22;64.77;98650.67;1707829;84;21256;-45
2022/07/11 01:13:51;;;;;;;11.57;5.20;;;;;;;17.07;65.35;98648.80;1707550;84;20933;-44
2022/07/11 01:16:25;;;;;;;8.00;4.72;;;;;;;16.95;65.52;98652.91;1743330;81;21009;-45
2022/07/11 01:18:53;;;;;;;9.48;4.97;;;;;;;16.89;65.81;98652.47;1707352;83;20977;-45
2022/07/11 01:21:41;;;;;;;7.90;4.37;;;;;;;16.89;65.84;98655.95;1708009;83;21013;-45
2022/07/11 01:24:13;;;;;;;7.65;3.52;;;;;;;16.86;65.71;98658.76;1707841;84;21280;-44
2022/07/11 01:26:37;;;;;;;6.15;3.42;;;;;;;16.76;65.89;98659.13;1742843;81;21033;-44
2022/07/11 01:29:12;;;;;;;6.20;3.02;;;;;;;16.72;66.05;98656.27;1743496;82;21024;-44
2022/07/11 01:31:42;;;;;;;8.25;3.12;;;;;;;16.65;66.37;98658.55;1707737;84;21020;-45
2022/07/11 01:34:09;;;;;;;5.30;3.10;;;;;;;16.64;66.52;98655.62;1743600;81;21046;-44
2022/07/11 01:36:36;;;;;;;6.42;3.10;;;;;;;16.60;66.74;98655.52;1743570;81;21212;-44
2022/07/11 01:39:03;;;;;;;4.97;2.90;;;;;;;16.55;66.96;98660.84;1743626;81;20954;-44
2022/07/11 01:41:31;;;;;;;7.33;2.35;;;;;;;16.51;67.02;98663.61;1743547;82;21467;-44
2022/07/11 01:43:58;;;;;;;3.98;2.65;;;;;;;16.48;67.00;98663.67;1707652;84;21017;-44
2022/07/11 01:46:25;;;;;;;4.37;2.45;;;;;;;16.50;67.18;98668.16;1707477;84;21534;-44
2022/07/11 01:48:52;;;;;;;3.50;2.05;;;;;;;16.51;67.26;98664.20;1707709;84;21547;-44
2022/07/11 01:51:19;;;;;;;3.98;2.30;;;;;;;16.50;67.32;98666.19;1707659;84;20961;-44
2022/07/11 01:53:47;;;;;;;3.45;2.45;;;;;;;16.49;67.30;98667.97;1707592;84;21080;-44
2022/07/11 01:56:15;;;;;;;3.50;2.20;;;;;;;16.46;67.28;98668.19;1707680;84;21064;-44
2022/07/11 01:58:42;;;;;;;3.17;1.95;;;;;;;16.43;67.30;98668.25;1707610;84;21527;-44
2022/07/11 02:01:09;;;;;;;3.62;2.00;;;;;;;16.41;67.32;98664.55;1707692;84;21142;-44
2022/07/11 02:03:37;;;;;;;3.47;2.25;;;;;;;16.36;67.44;98668.38;1707731;84;20962;-44
2022/07/11 02:06:05;;;;;;;2.83;2.02;;;;;;;16.28;67.70;98668.28;1707724;84;21005;-44
2022/07/11 02:08:32;;;;;;;4.40;2.20;;;;;;;16.26;67.81;98674.19;1743497;81;21024;-44
2022/07/11 02:10:59;;;;;;;4.42;2.25;;;;;;;16.25;67.75;98669.91;1743327;81;21294;-44
2022/07/11 02:13:26;;;;;;;4.05;2.40;;;;;;;16.21;67.74;98665.67;1743515;81;21176;-44
2022/07/11 02:15:54;;;;;;;3.35;1.85;;;;;;;16.17;67.84;98669.06;1743209;81;20957;-44
2022/07/11 02:18:21;;;;;;;6.12;2.37;;;;;;;16.14;67.97;98666.54;1743497;81;20962;-44
2022/07/11 02:20:49;;;;;;;4.42;2.10;;;;;;;16.17;68.01;98659.48;1743265;82;21635;-44
2022/07/11 02:23:17;;;;;;;4.25;2.30;;;;;;;16.14;68.11;98658.93;1743576;82;21057;-44
2022/07/11 02:25:44;;;;;;;3.77;2.30;;;;;;;16.11;68.14;98648.83;1743584;82;21817;-44
2022/07/11 02:28:12;;;;;;;4.03;2.83;;;;;;;16.06;68.25;98661.00;1743490;81;21562;-44
2022/07/11 02:30:40;;;;;;;4.22;2.30;;;;;;;16.06;68.37;98660.41;1741026;81;21046;-44
2022/07/11 02:33:07;;;;;;;2.67;1.92;;;;;;;16.08;68.24;98664.08;1734973;82;21662;-44
2022/07/11 02:35:37;;;;;;;3.52;2.42;;;;;;;16.11;68.28;98665.23;1735063;82;21064;-44
2022/07/11 02:38:04;;;;;;;3.52;2.35;;;;;;;16.08;68.17;98655.29;1735300;82;21847;-44
2022/07/11 02:40:31;;;;;;;3.52;2.62;;;;;;;16.06;68.42;98662.38;1735017;82;21575;-44
2022/07/11 02:42:58;;;;;;;6.28;2.80;;;;;;;16.03;68.55;98661.22;1735061;82;21331;-44
2022/07/11 02:45:26;;;;;;;3.95;2.33;;;;;;;16.03;68.48;98661.81;1735006;82;21588;-44
2022/07/11 02:47:53;;;;;;;3.87;2.50;;;;;;;16.02;68.46;98661.03;1734975;82;20978;-44
2022/07/11 02:50:20;;;;;;;3.87;2.70;;;;;;;16.09;68.23;98673.84;1735042;82;21154;-44
2022/07/11 02:52:47;;;;;;;7.42;2.72;;;;;;;16.14;68.11;98667.91;1734854;82;20994;-44
2022/07/11 02:55:15;;;;;;;3.87;2.80;;;;;;;16.13;67.95;98672.41;1734855;82;20989;-44
2022/07/11 02:57:42;;;;;;;8.05;3.25;;;;;;;16.09;68.03;98671.11;1734954;82;21093;-44
2022/07/11 03:00:15;;;;;;;6.15;3.60;;;;;;;15.97;68.21;98658.80;1734845;82;20967;-44
2022/07/11 03:02:43;;;;;;;6.15;3.12;;;;;;;16.02;68.32;98671.22;1734948;82;21085;-44
2022/07/11 03:05:12;;;;;;;5.90;3.22;;;;;;;16.00;68.42;98676.31;1734998;82;20997;-44
2022/07/11 03:07:39;;;;;;;6.33;3.62;;;;;;;16.05;68.38;98678.00;1735013;82;20986;-44
2022/07/11 03:10:08;;;;;;;5.17;3.60;;;;;;;16.08;68.52;98673.06;1735059;82;20902;-44
2022/07/11 03:12:35;;;;;;;8.85;4.08;;;;;;;16.07;68.53;98663.92;1735381;82;21085;-44
2022/07/11 03:15:02;;;;;;;8.00;3.62;;;;;;;16.02;68.75;98663.77;1735062;82;21519;-44
2022/07/11 03:17:29;;;;;;;8.18;3.83;;;;;;;15.97;68.85;98657.42;1734900;82;20962;-44
2022/07/11 03:19:56;;;;;;;6.80;3.80;;;;;;;15.94;69.07;98670.53;1734952;82;20983;-44
2022/07/11 03:22:24;;;;;;;8.05;3.77;;;;;;;15.94;69.17;98663.70;1736847;81;21077;-44
2022/07/11 03:24:51;;;;;;;7.60;3.70;;;;;;;15.95;69.25;98665.84;1743025;82;21001;-44
2022/07/11 03:27:18;;;;;;;6.83;4.05;;;;;;;15.99;69.33;98667.92;1737950;82;21289;-44
2022/07/11 03:29:45;;;;;;;7.75;4.47;;;;;;;16.00;69.39;98665.38;1742886;81;21590;-44
2022/07/11 03:32:12;;;;;;;8.25;4.05;;;;;;;16.00;69.25;98669.48;1743184;82;21009;-44
2022/07/11 03:34:39;;;;;;;7.10;4.05;;;;;;;16.03;69.23;98670.02;1743249;82;20985;-44
2022/07/11 03:37:06;;;;;;;6.15;3.65;;;;;;;16.08;69.31;98670.33;1743202;82;20978;-44
2022/07/11 03:39:33;;;;;;;6.67;3.58;;;;;;;16.16;69.40;98664.77;1743072;82;21365;-44
2022/07/11 03:42:01;;;;;;;7.70;4.03;;;;;;;16.24;69.33;98671.67;1743102;82;21041;-44
2022/07/11 03:44:28;;;;;;;6.08;3.77;;;;;;;16.30;69.15;98672.77;1743313;82;21021;-44
2022/07/11 03:46:55;;;;;;;9.25;4.60;;;;;;;16.33;69.09;98670.55;1743181;82;21037;-44
2022/07/11 03:49:22;;;;;;;8.03;4.00;;;;;;;16.34;68.88;98668.00;1743462;82;20986;-44
2022/07/11 03:51:52;;;;;;;8.13;4.12;;;;;;;16.40;68.64;98666.36;1743237;82;21218;-44
2022/07/11 03:54:19;;;;;;;7.65;4.72;;;;;;;16.48;68.53;98669.15;1714772;82;21983;-44
2022/07/11 03:56:46;;;;;;;5.42;3.95;;;;;;;16.51;68.09;98664.20;1743222;82;21515;-44
2022/07/11 03:59:13;;;;;;;9.25;4.53;;;;;;;16.52;67.99;98658.91;1743091;82;21569;-44
2022/07/11 04:01:40;;;;;;;7.40;4.00;;;;;;;16.52;68.04;98661.65;1743346;82;20982;-44
2022/07/11 04:04:08;;;;;;;10.18;4.17;;;;;;;16.56;67.98;98655.52;1743350;82;21134;-44
2022/07/11 04:06:36;;;;;;;8.60;4.08;;;;;;;16.65;67.98;98659.92;1743119;82;21519;-43
2022/07/11 04:09:03;;;;;;;7.22;4.28;;;;;;;16.76;67.64;98662.45;1743382;82;21525;-44
2022/07/11 04:11:31;;;;;;;7.72;4.45;;;;;;;16.84;67.48;98668.00;1743169;82;21626;-44
2022/07/11 04:13:58;;;;;;;7.72;4.15;;;;;;;16.90;66.89;98666.31;1743133;82;21005;-44
2022/07/11 04:16:26;;;;;;;6.58;4.30;;;;;;;16.98;66.98;98666.97;1743315;82;21124;-44
2022/07/11 04:18:53;;;;;;;7.40;4.08;;;;;;;17.08;66.39;98666.01;1743335;82;21475;-44
2022/07/11 04:21:20;;;;;;;9.18;4.78;;;;;;;17.21;66.20;98662.82;1743193;82;21091;-43
2022/07/11 04:23:48;;;;;;;8.13;5.10;;;;;;;17.36;65.87;98662.73;1747257;81;21516;-44
2022/07/11 04:26:16;;;;;;;8.15;5.20;;;;;;;17.49;65.86;98659.52;1748971;81;21538;-43
2022/07/11 04:28:44;;;;;;;8.98;5.30;;;;;;;17.65;65.51;98662.95;1748968;82;21241;-43
2022/07/11 04:31:11;;;;;;;10.38;5.67;;;;;;;17.79;64.90;98656.58;1748912;82;21539;-44
2022/07/11 04:33:38;;;;;;;10.45;5.33;;;;;;;17.91;64.03;98658.49;1749147;82;20969;-43
2022/07/11 04:36:07;;;;;;;9.43;5.47;;;;;;;17.95;63.95;98662.70;1749093;82;20981;-44
2022/07/11 04:38:34;;;;;;;10.90;5.42;;;;;;;17.98;63.74;98661.06;1749134;81;20984;-43
2022/07/11 04:41:03;;;;;;;9.65;5.10;;;;;;;18.04;63.42;98662.89;1749014;81;20969;-44
2022/07/11 04:43:31;;;;;;;9.75;5.05;;;;;;;18.11;63.58;98664.68;1749128;81;21556;-44
2022/07/11 04:45:58;;;;;;;9.03;5.12;;;;;;;18.19;63.63;98663.34;1749036;82;21047;-44
2022/07/11 04:48:25;;;;;;;7.95;5.50;;;;;;;18.27;63.52;98666.08;1749247;81;21534;-44
2022/07/11 04:50:53;;;;;;;8.50;4.87;;;;;;;18.33;63.18;98664.38;1749002;81;21021;-44
2022/07/11 04:53:20;;;;;;;9.38;4.85;;;;;;;18.38;63.03;98662.50;1721745;82;21223;-44
2022/07/11 04:55:48;;;;;;;9.10;4.33;;;;;;;18.41;63.08;98660.86;1748929;81;21016;-44
2022/07/11 04:58:14;;;;;;;6.95;3.92;;;;;;;18.51;63.02;98664.72;1749307;82;21556;-44
2022/07/11 05:00:41;;;;;;;8.35;4.58;;;;;;;18.58;61.84;98666.56;1749029;81;21008;-44
2022/07/11 05:03:08;;;;;;;9.40;4.70;;;;;;;18.61;62.26;98671.95;1749160;82;20978;-44
2022/07/11 05:05:36;;;;;;;7.37;4.78;;;;;;;18.64;61.80;98661.48;1749059;82;21230;-44
2022/07/11 05:08:05;;;;;;;7.47;4.75;;;;;;;18.68;61.69;98668.27;1748991;82;21569;-43
2022/07/11 05:10:33;;;;;;;10.48;4.90;;;;;;;18.71;62.53;98665.25;1749054;82;21017;-44
2022/07/11 05:13:00;;;;;;;7.95;4.62;;;;;;;18.81;62.59;98669.70;1749021;81;21088;-44
2022/07/11 05:15:29;;;;;;;6.97;4.42;;;;;;;18.89;62.03;98670.46;1749065;81;21468;-43
2022/07/11 05:17:56;;;;;;;10.90;4.33;;;;;;;18.97;61.40;98669.09;1748928;82;21303;-44
2022/07/11 05:20:24;;;;;;;9.08;4.33;;;;;;;19.04;61.31;98659.87;1749048;81;21001;-44
2022/07/11 05:22:51;;;;;;;8.85;4.72;;;;;;;19.14;61.03;98669.81;1746485;81;21059;-44
2022/07/11 05:25:18;;;;;;;7.50;4.53;;;;;;;19.22;60.69;98671.16;1735157;82;20910;-44
2022/07/11 05:27:45;;;;;;;7.95;4.28;;;;;;;19.26;60.71;98666.97;1735152;82;21634;-44
2022/07/11 05:30:12;;;;;;;10.90;4.90;;;;;;;19.28;60.44;98670.03;1735107;82;21237;-44
2022/07/11 05:32:39;;;;;;;9.18;4.50;;;;;;;19.27;60.36;98674.75;1735276;82;21512;-44
2022/07/11 05:35:09;;;;;;;7.75;4.85;;;;;;;19.27;61.09;98667.11;1734970;82;21550;-44
2022/07/11 05:37:36;;;;;;;9.60;4.17;;;;;;;19.33;60.70;98674.40;1735225;82;20950;-44
2022/07/11 05:40:06;;;;;;;8.88;4.40;;;;;;;19.35;60.57;98676.13;1734964;82;21092;-44
2022/07/11 05:42:34;;;;;;;6.33;4.00;;;;;;;19.39;60.80;98673.27;1735021;82;20978;-44
2022/07/11 05:45:01;;;;;;;8.63;4.20;;;;;;;19.50;60.51;98671.80;1734919;82;20973;-43
2022/07/11 05:47:29;;;;;;;8.20;3.72;;;;;;;19.65;60.46;98674.92;1735104;82;20996;-43
2022/07/11 05:49:57;;;;;;;11.60;3.62;;;;;;;19.77;59.45;98676.91;1735019;82;21041;-44
2022/07/11 05:52:24;;;;;;;8.08;3.60;;;;;;;19.83;59.46;98670.27;1734923;82;21533;-44
2022/07/11 05:54:51;;;;;;;9.63;3.40;;;;;;;19.92;60.04;98671.77;1735099;82;21134;-44
2022/07/11 05:57:19;;;;;;;9.15;3.75;;;;;;;20.01;58.77;98666.98;1735032;82;20981;-44
2022/07/11 05:59:46;;;;;;;5.83;3.20;;;;;;;20.06;59.02;98670.56;1734847;82;21021;-44
2022/07/11 06:02:14;;;;;;;7.10;3.40;;;;;;;20.08;58.49;98668.92;1734830;82;21520;-44
2022/07/11 06:04:42;;;;;;;5.85;3.35;;;;;;;20.11;59.03;98669.41;1735144;82;20938;-45
2022/07/11 06:07:09;;;;;;;5.90;3.12;;;;;;;20.17;59.12;98677.89;1734979;82;21257;-44
2022/07/11 06:09:36;;;;;;;5.40;3.22;;;;;;;20.23;58.67;98667.88;1735005;82;21038;-45
2022/07/11 06:12:06;;;;;;;6.05;3.22;;;;;;;20.26;58.68;98673.27;1735093;82;20930;-44
2022/07/11 06:14:33;;;;;;;5.30;3.27;;;;;;;20.26;58.40;98669.74;1735476;82;20989;-45
2022/07/11 06:17:01;;;;;;;6.17;3.77;;;;;;;20.26;58.49;98676.02;1735098;82;20997;-44
2022/07/11 06:19:29;;;;;;;9.50;3.70;;;;;;;20.28;58.67;98673.58;1735282;82;21916;-44
2022/07/11 06:21:56;;;;;;;8.65;4.05;;;;;;;20.31;57.64;98675.50;1734932;82;21519;-44
2022/07/11 06:24:23;;;;;;;7.60;3.87;;;;;;;20.27;57.23;98674.81;1744489;81;21008;-44
2022/07/11 06:26:52;;;;;;;6.85;3.75;;;;;;;20.20;57.38;98677.00;1749055;81;21018;-44
2022/07/11 06:29:19;;;;;;;9.43;4.50;;;;;;;20.13;56.71;98679.98;1749099;81;20985;-45
2022/07/11 06:31:47;;;;;;;7.60;4.35;;;;;;;19.99;57.20;98683.95;1748811;82;23141;-44
2022/07/11 06:34:15;;;;;;;8.05;3.85;;;;;;;19.89;57.27;98682.28;1749213;82;20930;-45
2022/07/11 06:36:41;;;;;;;6.65;3.80;;;;;;;19.83;57.87;98682.05;1748882;81;21097;-45
2022/07/11 06:39:08;;;;;;;7.10;3.50;;;;;;;19.74;57.90;98679.17;1748947;81;21539;-44
2022/07/11 06:41:36;;;;;;;6.53;3.85;;;;;;;19.68;58.25;98678.77;1749152;82;21551;-44
2022/07/11 06:44:05;;;;;;;6.37;3.67;;;;;;;19.66;58.70;98677.05;1748861;82;23117;-44
2022/07/11 06:46:32;;;;;;;6.72;3.90;;;;;;;19.37;58.75;98635.21;1748935;82;21029;-44
2022/07/11 06:49:00;;;;;;;6.55;3.25;;;;;;;19.63;58.84;98677.92;1749070;82;21534;-45
2022/07/11 06:51:27;;;;;;;5.55;3.80;;;;;;;19.65;58.99;98679.65;1749016;81;21049;-44
2022/07/11 06:53:53;;;;;;;6.70;3.45;;;;;;;19.70;59.23;98675.77;1749073;81;21061;-44
2022/07/11 06:56:20;;;;;;;7.30;4.25;;;;;;;19.82;59.79;98679.72;1749125;81;21229;-44
2022/07/11 06:58:47;;;;;;;7.83;3.47;;;;;;;19.95;58.59;98675.78;1748933;81;20997;-44
2022/07/11 07:01:15;;;;;;;6.25;3.58;;;;;;;20.05;58.48;98676.66;1749147;82;20997;-45
2022/07/11 07:03:42;;;;;;;6.65;3.47;;;;;;;20.15;58.56;98674.80;1748915;82;21009;-44
2022/07/11 07:06:09;;;;;;;4.80;3.00;;;;;;;20.21;58.16;98666.16;1749136;81;20941;-44
2022/07/11 07:08:36;;;;;;;7.78;3.87;;;;;;;20.29;57.89;98678.48;1749143;81;21219;-45
2022/07/11 07:11:04;;;;;;;6.33;3.77;;;;;;;20.34;58.49;98674.61;1749073;82;20919;-45
2022/07/11 07:13:31;;;;;;;6.85;3.95;;;;;;;20.43;58.00;98675.94;1749153;81;20973;-44
2022/07/11 07:15:57;;;;;;;7.40;3.60;;;;;;;20.50;58.12;98670.19;1748856;81;21530;-44
2022/07/11 07:18:25;;;;;;;6.12;3.47;;;;;;;20.56;57.84;98668.43;1749083;82;21685;-44
2022/07/11 07:20:52;;;;;;;5.08;3.25;;;;;;;20.63;58.10;98656.56;1748954;82;21191;-44
2022/07/11 07:23:19;;;;;;;8.55;3.80;;;;;;;20.70;57.64;98665.20;1747441;81;21024;-45
2022/07/11 07:25:46;;;;;;;4.67;3.20;;;;;;;20.72;57.55;98662.16;1735079;82;20934;-44
2022/07/11 07:28:14;;;;;;;4.97;3.27;;;;;;;20.82;58.21;98672.05;1734950;82;21598;-44
2022/07/11 07:30:41;;;;;;;4.97;3.30;;;;;;;20.96;57.70;98660.41;1735182;82;21548;-45
2022/07/11 07:33:07;;;;;;;5.40;3.55;;;;;;;21.03;56.99;98665.05;1735135;82;21200;-45
2022/07/11 07:38:36;;;;;;;6.87;3.52;;;;;;;21.19;56.50;98669.06;1783324;79;22785;-44
2022/07/11 07:41:03;;;;;;;5.25;3.40;;;;;;;21.17;56.17;98665.97;1755524;81;21567;-44
2022/07/11 07:43:30;;;;;;;6.20;3.47;;;;;;;21.21;56.71;98674.11;1755632;81;21249;-44
2022/07/11 07:45:57;;;;;;;4.85;3.30;;;;;;;21.25;56.46;98670.00;1755410;81;20922;-44
2022/07/11 07:48:24;;;;;;;7.10;3.70;;;;;;;21.28;56.91;98668.96;1755501;81;21065;-44
2022/07/11 07:50:53;;;;;;;8.00;3.87;;;;;;;21.32;56.65;98672.36;1755399;81;21171;-44
2022/07/11 07:53:20;;;;;;;6.72;3.50;;;;;;;21.30;56.41;98675.55;1755770;81;21565;-44
2022/07/11 07:55:49;;;;;;;5.85;3.62;;;;;;;21.28;56.25;98677.23;1755584;81;21130;-44
2022/07/11 07:58:16;;;;;;;9.35;3.70;;;;;;;21.31;57.20;98671.58;1755668;81;21532;-44
2022/07/11 08:03:28;;;;;;;8.03;4.08;;;;;;;21.56;56.06;98678.36;1755624;81;21046;-44
2022/07/11 08:05:55;;;;;;;7.10;3.90;;;;;;;21.67;56.26;98683.49;1755466;81;21314;-44
2022/07/11 08:08:24;;;;;;;6.53;3.77;;;;;;;21.80;56.73;98680.04;1755425;81;23157;-44
2022/07/11 08:10:51;;;;;;;6.53;3.17;;;;;;;21.95;55.53;98671.41;1755520;81;21525;-44
2022/07/11 08:13:19;;;;;;;9.05;3.90;;;;;;;22.12;55.69;98671.20;1755635;81;21041;-44
2022/07/11 08:15:48;;;;;;;6.47;3.22;;;;;;;22.28;55.29;98670.94;1755419;81;20986;-44
2022/07/11 08:18:15;;;;;;;6.62;3.50;;;;;;;22.43;53.90;98673.30;1755629;81;21089;-44
2022/07/11 08:20:43;;;;;;;5.97;3.37;;;;;;;22.48;53.65;98670.70;1755485;81;21146;-44
2022/07/11 08:23:12;;;;;;;7.08;3.60;;;;;;;22.58;54.19;98665.97;1755473;81;21575;-44
2022/07/11 08:25:40;;;;;;;6.37;3.25;;;;;;;22.76;53.95;98668.02;1755379;81;21015;-43
2022/07/11 08:28:07;;;;;;;5.53;3.47;;;;;;;22.95;53.41;98662.06;1755649;81;21054;-44
2022/07/11 08:30:34;;;;;;;6.20;3.37;;;;;;;23.14;53.38;98666.98;1755516;81;21066;-44
2022/07/11 08:33:02;;;;;;;5.00;2.92;;;;;;;23.38;52.60;98667.16;1755660;81;21183;-44
2022/07/11 08:35:30;;;;;;;6.10;3.00;;;;;;;23.55;51.16;98668.38;1755494;81;21082;-44
2022/07/11 08:37:57;;;;;;;4.92;2.75;;;;;;;23.63;51.16;98669.59;1747497;81;21022;-44
2022/07/11 08:40:24;;;;;;;5.42;2.52;;;;;;;23.74;51.15;98670.50;1742506;82;21033;-44
2022/07/11 08:42:51;;;;;;;5.55;2.70;;;;;;;23.85;50.89;98674.94;1742624;82;21473;-44
2022/07/11 08:45:18;;;;;;;7.00;2.70;;;;;;;23.94;50.38;98675.52;1744090;81;21212;-44
2022/07/11 08:47:45;;;;;;;3.00;2.20;;;;;;;23.97;49.94;98665.66;1743868;81;20961;-44
2022/07/11 08:50:13;;;;;;;6.33;2.27;;;;;;;23.92;49.66;98667.67;1743613;81;21540;-44
2022/07/11 08:52:40;;;;;;;4.62;2.30;;;;;;;23.81;49.80;98665.42;1743683;81;21073;-44
2022/07/11 08:55:08;;;;;;;3.50;2.35;;;;;;;23.72;49.52;98669.56;1758096;81;21010;-44
2022/07/11 08:57:38;;;;;;;3.05;2.27;;;;;;;23.56;49.22;98664.39;1743838;82;21084;-44
2022/07/11 09:00:08;;;;;;;4.03;2.67;;;;;;;23.49;49.98;98670.23;1743592;82;21049;-44
2022/07/11 09:02:36;;;;;;;4.17;2.30;;;;;;;23.42;50.09;98676.67;1743944;82;20982;-44
2022/07/11 09:05:07;;;;;;;5.47;2.40;;;;;;;23.37;50.48;98674.69;1743512;82;20994;-45
2022/07/11 09:07:38;;;;;;;4.20;2.37;;;;;;;23.30;50.54;98671.44;1743779;82;20994;-44
2022/07/11 09:10:07;;;;;;;3.90;2.35;;;;;;;23.24;50.26;98667.75;1743567;81;23163;-44
2022/07/11 09:12:34;;;;;;;4.83;2.80;;;;;;;23.18;50.23;98659.94;1743435;82;21559;-44
2022/07/11 09:15:01;;;;;;;5.60;3.30;;;;;;;23.14;50.77;98664.22;1743460;82;21241;-44
2022/07/11 09:17:32;;;;;;;5.55;2.87;;;;;;;23.15;51.18;98667.14;1743527;81;21528;-44
2022/07/11 09:19:59;;;;;;;;;;;;;;;23.14;51.43;98666.98;1746082;82;21038;-44
2022/07/11 09:25:23;;;;;;;7.70;2.87;;;;;;;22.95;52.35;98656.53;1743591;82;20977;-44
2022/07/11 09:28:07;;;;;;;5.67;3.20;;;;;;;23.04;52.61;98665.47;1743540;81;21061;-44
2022/07/11 09:30:43;;;;;;;5.10;3.10;;;;;;;23.04;52.52;98659.94;1743502;81;21470;-44
2022/07/11 09:33:11;;;;;;;4.85;3.17;;;;;;;23.03;52.78;98659.01;1742191;81;22257;-44
2022/07/11 09:35:41;;;;;;;4.28;2.67;;;;;;;23.00;53.10;98661.29;1743899;82;21082;-44
2022/07/11 09:38:12;;;;;;;6.15;3.12;;;;;;;22.93;53.45;98667.30;1745241;81;20981;-45
2022/07/11 09:40:44;;;;;;;6.17;3.02;;;;;;;22.91;54.10;98665.59;1756954;81;20978;-44
2022/07/11 09:43:13;;;;;;;5.45;3.12;;;;;;;22.95;54.32;98659.30;1740675;81;20942;-44
2022/07/11 09:45:41;;;;;;;4.87;2.95;;;;;;;22.98;53.73;98664.53;1756720;81;21021;-44
2022/07/11 09:48:12;;;;;;;5.62;2.55;;;;;;;23.01;53.92;98660.07;1757148;81;21289;-44
2022/07/11 09:50:42;;;;;;;5.58;2.98;;;;;;;23.03;52.67;98659.78;1757127;81;21035;-44
2022/07/11 09:53:16;;;;;;;5.40;2.83;;;;;;;23.04;52.56;98659.94;1757027;81;21479;-44
2022/07/11 09:55:48;;;;;;;6.35;3.33;;;;;;;23.07;51.89;98655.47;1756760;81;21084;-44
2022/07/11 09:58:16;;;;;;;3.27;2.30;;;;;;;23.11;51.80;98648.56;1756762;81;20989;-44
2022/07/11 10:00:45;;;;;;;3.00;2.27;;;;;;;23.21;51.68;98643.80;1757105;81;21708;-44
2022/07/11 10:03:12;;;;;;;3.33;2.15;;;;;;;23.33;51.33;98642.23;1751929;81;21638;-44
2022/07/11 10:05:39;;;;;;;5.33;2.83;;;;;;;23.41;51.50;98648.23;1756843;81;21598;-44
2022/07/11 10:08:06;;;;;;;8.28;2.87;;;;;;;23.52;50.80;98641.65;1756429;81;21404;-44
2022/07/11 10:10:33;;;;;;;4.55;2.45;;;;;;;23.62;50.33;98644.55;1757170;81;20990;-44
2022/07/11 10:13:01;;;;;;;8.90;2.90;;;;;;;23.74;50.35;98636.67;1756799;81;21132;-44
2022/07/11 10:15:33;;;;;;;5.92;3.00;;;;;;;23.89;50.56;98636.01;1756820;81;21044;-44
2022/07/11 10:18:14;;;;;;;4.55;2.40;;;;;;;24.04;49.93;98633.49;1757025;81;21012;-44
2022/07/11 10:21:03;;;;;;;4.28;2.22;;;;;;;24.15;49.61;98635.77;1721058;83;21060;-44
2022/07/11 10:23:44;;;;;;;9.38;2.60;;;;;;;24.23;47.75;98630.05;1720864;83;21541;-44
2022/07/11 10:26:43;;;;;;;3.77;2.50;;;;;;;24.24;47.80;98619.90;1720819;83;21324;-44
2022/07/11 10:29:24;;;;;;;3.40;2.12;;;;;;;24.27;47.84;98632.03;1720732;83;21069;-44
2022/07/11 10:32:08;;;;;;;3.60;2.17;;;;;;;24.31;46.66;98627.08;1720547;83;21004;-44
2022/07/11 10:34:34;;;;;;;4.37;2.05;;;;;;;24.49;47.42;98631.77;1718712;83;20929;-44
2022/07/11 10:37:06;;;;;;;4.28;2.10;;;;;;;24.64;46.08;98624.29;1720972;83;21974;-44
2022/07/11 10:39:35;;;;;;;4.03;1.90;;;;;;;24.76;46.17;98634.97;1708132;83;21130;-44
2022/07/11 10:42:04;;;;;;;3.90;1.95;;;;;;;24.82;44.75;98630.31;1707497;84;21013;-44
2022/07/11 10:44:51;;;;;;;4.28;1.87;;;;;;;24.80;44.07;98632.78;1708168;83;21036;-44
2022/07/11 10:47:35;;;;;;;4.47;2.02;;;;;;;24.73;44.48;98633.16;1743078;81;20965;-44
2022/07/11 10:50:20;;;;;;;5.25;2.30;;;;;;;24.65;43.89;98634.88;1733270;82;21499;-44
2022/07/11 10:52:49;;;;;;;4.17;2.12;;;;;;;24.67;43.52;98635.19;1734689;81;21327;-44
2022/07/11 10:55:43;;;;;;;3.15;2.00;;;;;;;24.73;43.49;98641.47;1743927;82;21024;-44
2022/07/11 10:58:29;;;;;;;5.97;2.58;;;;;;;24.73;42.11;98635.93;1743113;81;20934;-44
2022/07/11 11:01:13;;;;;;;4.22;2.30;;;;;;;24.60;41.64;98641.07;1743012;81;21387;-44
2022/07/11 11:03:41;;;;;;;3.70;2.40;;;;;;;24.41;42.11;98651.34;1743658;81;21013;-44
2022/07/11 11:06:08;;;;;;;6.20;3.20;;;;;;;24.21;42.49;98654.67;1743656;82;21076;-44
2022/07/11 11:08:46;;;;;;;7.85;3.20;;;;;;;24.09;42.88;98652.24;1743538;82;20984;-44
2022/07/11 11:11:29;;;;;;;7.55;3.20;;;;;;;24.04;43.64;98653.49;1743585;81;20887;-44
2022/07/11 11:14:22;;;;;;;7.65;3.33;;;;;;;24.03;43.58;98660.26;1743607;81;20953;-44
2022/07/11 11:16:50;;;;;;;9.25;4.10;;;;;;;23.89;43.52;98656.77;1743523;81;21500;-44
2022/07/11 11:19:42;;;;;;;9.23;4.60;;;;;;;23.82;44.42;98663.39;1743577;81;21555;-44
2022/07/11 11:22:14;;;;;;;8.55;4.25;;;;;;;23.78;44.60;98660.02;1740612;81;20938;-44
2022/07/11 11:24:44;;;;;;;13.40;4.97;;;;;;;23.67;45.50;98661.89;1743522;81;21021;-44
2022/07/11 11:27:18;;;;;;;8.58;4.55;;;;;;;23.59;45.30;98668.98;1743533;81;21014;-44
2022/07/11 11:29:45;;;;;;;7.47;3.67;;;;;;;23.48;45.82;98665.92;1743769;81;21002;-44
2022/07/11 11:32:12;;;;;;;7.03;3.25;;;;;;;23.41;45.81;98667.60;1743546;82;21825;-44
2022/07/11 11:34:43;;;;;;;6.65;3.10;;;;;;;23.34;44.78;98664.52;1743586;82;21503;-44
2022/07/11 11:37:10;;;;;;;4.90;2.55;;;;;;;23.23;44.52;98671.16;1743211;82;21718;-44
2022/07/11 11:39:39;;;;;;;6.17;2.77;;;;;;;23.18;44.65;98671.77;1754783;81;21530;-44
2022/07/11 11:42:15;;;;;;;5.60;2.37;;;;;;;23.10;44.84;98680.81;1756795;81;21041;-44
2022/07/11 11:44:55;;;;;;;5.87;2.40;;;;;;;23.04;44.90;98673.77;1757031;81;21081;-44
2022/07/11 11:47:23;;;;;;;5.78;2.62;;;;;;;22.98;44.06;98675.59;1756615;81;21008;-44